Portada
METAR-TAF:

METAR-TAF

Aeropuertos :

Seward, Alaska, Estados Unidos

latitud: 60-07N, longitud: 149-27W, altitud: 9 m

Observación

El informe se hizo hace 47 minutos, a las 17:53 UTC
Viento 11 kt del norte-noreste
Temperatura -4°C
Humedad 74%
Presión 975 hPa
Visibilidad: 16.1 km
Cielo cubierto a una altura de 5500 ft

METAR: PAWD 301753Z AUTO 02011KT 10SM OVC055 M04/M08 A2880 RMK AO2 SLP751 60000 T10441083 11028 21061 55002 TSNO $

Hora: 09:40 (18:40 UTC)


TAF: falta

Observaciones y pronósticos meteorológicos de más de 4000 aeropuertos (mensajes METAR y TAF).

Los puntos amarillos y rojos representan las estaciones disponibles.

Ponga el ratón en el punto deseado para ver el nombre de la estación.

Haga clic para ver las observaciones y los pronósticos meteorológicos.

Para cambiar el mapa : haga clic en los botones verdes con una cruz de color negro para hacer un zoom, en el botón verde con un guión para alejar o en las flechas verdes para mapas adyacentes.


METAR-TAF: